Latest Coastal Weather Observations for Edithburgh

IDS60701

Issued at 7:11 am CST Wednesday 27 July 2016 (issued every 10 minutes, with the page automatically refreshed every 10 minutes)

About coastal observations | Map of coastal stations | Coastal observations for SA | Marine services | Other Formats
Station Details ID: 022046 Name: EDITHBURGH Lat: -35.11 Lon: 137.74 Height: 6.0 m
Data from the previous 72 hours. | See also: Recent months at Edithburgh
Date/Time
CST
Temp
°C
Wind Pressure Rain since
9am
mm
Weather Cloud Vis
km
Sea
Height
m
Swell
Dir  Spd
kts
Gust
kts
hPa Trend Height
m
Period
s
Dir
27/07:00am 11.1 SW 13 18 1020.7 - - - - - - - - -
27/06:30am 11.3 SW 13 21 1020.2 - - - - - - - - -
27/06:00am 11.2 SW 13 17 1019.8 - - - - - - - - -
27/05:30am 11.5 SW 15 21 1019.1 - - - - - - - - -
27/05:00am 11.4 SW 13 18 1018.6 - - - - - - - - -
27/04:30am 11.4 SW 15 21 1017.8 - - - - - - - - -
27/04:00am 11.3 SW 14 19 1017.3 - - - - - - - - -
27/03:30am 11.5 SW 17 24 1016.8 - 6.4 - - - - - - -
27/03:00am 11.7 SW 17 25 1016.6 - 6.4 - - - - - - -
27/02:30am 11.8 SW 16 25 1016.1 - 6.4 - - - - - - -
27/02:10am 12.1 SW 15 25 1015.7 - 6.4 - - - - - - -
27/02:00am 11.9 SW 15 20 1015.7 - 6.4 - - - - - - -
27/01:30am 12.5 SW 15 20 1015.0 - 6.4 - - - - - - -
27/01:00am 11.5 WSW 10 14 1014.6 - 6.4 - - - - - - -
27/12:30am 12.3 WSW 13 16 1014.2 - 6.4 - - - - - - -
27/12:00am 11.9 WSW 11 18 1013.6 - 6.4 - - - - - - -
 
Date/Time
CST
Temp
°C
Wind Pressure Rain since
9am
mm
Weather Cloud Vis
km
Sea
Height
m
Swell
Dir  Spd
kts
Gust
kts
hPa Trend Height
m
Period
s
Dir
26/11:30pm 11.9 WSW 15 20 1013.3 - 6.4 - - - - - - -
26/11:00pm 11.4 WSW 13 19 1013.2 - 6.4 - - - - - - -
26/10:47pm 11.2 WSW 15 30 1013.0 - 6.4 - - - - - - -
26/10:30pm 11.6 W 12 18 1012.6 - 6.2 - - - - - - -
26/10:00pm 11.9 W 11 14 1012.0 - 5.0 - - - - - - -
26/09:30pm 11.5 W 15 20 1011.5 - 5.0 - - - - - - -
26/09:00pm 12.0 WSW 16 28 1011.0 - 5.0 Rain - - - - - -
26/08:41pm 11.7 W 18 29 1010.6 - 4.8 - - - - - - -
26/08:30pm 11.4 W 18 24 1010.5 - 4.8 - - - - - - -
26/08:08pm 12.6 WSW 17 31 1010.2 - 4.2 - - - - - - -
26/08:00pm 12.7 WSW 14 19 1009.7 - 4.2 - - - - - - -
26/07:30pm 12.4 WSW 14 20 1009.3 - 4.2 - - - - - - -
26/07:24pm 12.5 WSW 15 25 1009.2 - 4.2 - - - - - - -
26/07:00pm 12.6 WSW 20 27 1008.6 - 4.2 - - - - - - -
26/06:45pm 12.4 W 19 29 1008.1 - 4.2 - - - - - - -
26/06:30pm 11.9 W 17 22 1008.0 - 4.2 - - - - - - -
26/06:00pm 11.4 W 22 30 1007.5 - 4.2 Recent precip. - - - - - -
26/05:46pm 11.5 W 16 28 1007.5 - 4.0 - - - - - - -
26/05:30pm 11.5 W 20 26 1007.0 - 3.6 - - - - - - -
26/05:02pm 11.8 WNW 23 33 1006.5 - 3.6 - - - - - - -
26/05:00pm 11.8 WNW 23 30 1006.5 - 3.6 - - - - - - -
26/04:37pm 11.9 WNW 29 41 1006.2 - 3.6 - - - - - - -
26/04:34pm 11.9 NW 30 41 1006.3 - 3.6 - - - - - - -
26/04:30pm 11.7 NW 29 41 1005.5 - 3.4 - - - - - - -
26/04:29pm 11.6 NW 27 41 1005.5 - 3.4 - - - - - - -
26/04:24pm 11.7 NW 22 33 1005.6 - 2.6 - - - - - - -
26/04:00pm 12.0 NW 20 26 1006.2 - 1.2 - - - - - - -
26/03:30pm 11.6 NW 21 31 1007.3 - 1.2 - - - - - - -
26/03:06pm 11.5 NW 23 34 1007.5 - 1.2 - - - - - - -
26/03:00pm 11.6 NW 24 31 1007.8 - 1.2 Recent precip. - - - - - -
26/02:30pm 11.1 NW 22 30 1008.4 - 1.2 - - - - - - -
26/02:00pm 11.1 NW 18 24 1009.4 - 0.4 - - - - - - -
26/01:30pm 12.1 NW 19 23 1009.9 - 0.2 - - - - - - -
26/01:00pm 12.6 NW 22 28 1010.5 - 0.2 - - - - - - -
26/12:30pm 12.0 NW 22 30 1011.1 - 0.2 - - - - - - -
26/12:00pm 11.0 NW 21 31 1012.2 - 0.0 - - - - - - -
26/11:43am 12.4 NW 21 31 1012.3 - 0.0 - - - - - - -
26/11:30am 12.8 NNW 18 23 1012.7 - 0.0 - - - - - - -
26/11:00am 12.2 NNW 17 24 1013.2 - 0.0 - - - - - - -
26/10:30am 11.7 NNW 16 22 1013.7 - 0.0 - - - - - - -
26/10:00am 11.4 NNW 13 17 1013.9 - 0.0 - - - - - - -
26/09:30am 12.1 NW 12 18 1014.1 - 0.0 - - - - - - -
26/09:00am 10.6 NNW 6 10 1014.5 - 5.0 - - - - - - -
26/08:30am 8.4 NNW 6 7 1014.7 - 5.0 - - - - - - -
26/08:00am 6.7 NNW 6 7 1014.9 - 5.0 - - - - - - -
26/07:30am 7.9 NW 9 11 1015.0 - 5.0 - - - - - - -
26/07:00am 7.4 NW 9 10 1014.9 - 5.0 - - - - - - -
26/06:30am 8.1 NW 9 11 1015.0 - 5.0 - - - - - - -
26/06:00am 8.4 NW 11 14 1015.0 - 5.0 - - - - - - -
26/05:30am 7.5 NW 10 13 1015.0 - 5.0 - - - - - - -
26/05:00am 7.1 NW 8 9 1015.1 - 5.0 - - - - - - -
26/04:30am 7.8 WNW 7 9 1015.3 - 5.0 - - - - - - -
26/04:00am 7.1 WNW 6 7 1015.6 - 5.0 - - - - - - -
26/03:30am 7.2 WNW 8 11 1015.8 - 5.0 - - - - - - -
26/03:00am 6.7 WNW 8 10 1016.0 - 5.0 - - - - - - -
26/02:30am 6.7 WNW 7 9 1016.0 - 5.0 - - - - - - -
26/02:00am 7.4 WNW 9 11 1016.2 - 5.0 - - - - - - -
26/01:30am 8.0 WNW 11 15 1016.3 - 5.0 - - - - - - -
26/01:00am 6.7 NW 10 13 1016.7 - 5.0 - - - - - - -
26/12:30am 6.8 W 7 9 1016.7 - 5.0 - - - - - - -
26/12:00am 6.7 WNW 8 10 1016.7 - 5.0 - - - - - - -
 
Date/Time
CST
Temp
°C
Wind Pressure Rain since
9am
mm
Weather Cloud Vis
km
Sea
Height
m
Swell
Dir  Spd
kts
Gust
kts
hPa Trend Height
m
Period
s
Dir
25/11:30pm 7.2 WNW 9 11 1016.9 - 5.0 - - - - - - -
25/11:00pm 7.4 WNW 8 10 1017.1 - 5.0 - - - - - - -
25/10:30pm 7.7 WNW 9 12 1016.9 - 4.8 - - - - - - -
25/10:00pm 8.0 WNW 7 9 1016.8 - 4.8 - - - - - - -
25/09:30pm 9.5 WNW 14 19 1016.7 - 4.8 - - - - - - -
25/09:00pm 8.8 W 8 11 1016.7 - 4.8 - - - - - - -
25/08:30pm 8.8 WNW 10 14 1016.3 - 4.8 - - - - - - -
25/08:00pm 9.8 W 10 16 1015.9 - 4.8 - - - - - - -
25/07:30pm 10.1 W 12 23 1015.7 - 4.8 - - - - - - -
25/07:00pm 10.6 W 14 20 1015.0 - 4.2 - - - - - - -
25/06:30pm 10.8 W 16 24 1014.3 - 4.2 - - - - - - -
25/06:00pm 11.6 W 18 24 1013.9 - 4.2 - - - - - - -
25/05:42pm 11.6 WSW 15 27 1013.7 - 4.2 - - - - - - -
25/05:30pm 11.7 W 13 19 1013.6 - 4.2 - - - - - - -
25/05:00pm 11.8 W 17 20 1013.1 - 4.2 - - - - - - -
25/04:30pm 12.2 W 17 23 1012.6 - 4.2 - - - - - - -
25/04:08pm 12.0 WSW 18 28 1012.6 - 4.2 - - - - - - -
25/04:00pm 11.9 WSW 15 24 1012.5 - 4.2 - - - - - - -
25/03:30pm 12.3 WSW 19 26 1011.9 - 4.2 - - - - - - -
25/03:20pm 12.3 WSW 18 29 1011.9 - 4.2 - - - - - - -
25/03:00pm 11.9 WSW 18 26 1011.9 - 4.2 Rain - - - - - -
25/02:58pm 11.9 WSW 18 26 1011.9 - 4.0 - - - - - - -
25/02:30pm 12.5 WNW 22 29 1010.7 - 2.6 - - - - - - -
25/02:02pm 12.9 W 20 31 1010.7 - 2.4 - - - - - - -
25/02:00pm 13.0 W 18 25 1010.9 - 2.2 - - - - - - -
25/01:50pm 13.2 WNW 20 33 1010.7 - 1.2 - - - - - - -
25/01:47pm 13.2 NW 23 33 1010.4 - 1.0 - - - - - - -
25/01:30pm 13.2 NW 22 29 1010.2 - 0.4 - - - - - - -
25/01:00pm 12.3 NW 22 30 1011.2 - 0.4 - - - - - - -
25/12:30pm 13.4 NW 28 35 1011.2 - 0.0 - - - - - - -
25/12:15pm 14.3 NW 27 37 1011.3 - 0.0 - - - - - - -
25/12:00pm 14.0 NW 27 35 1011.6 - 0.0 - - - - - - -
25/11:30am 13.9 NW 25 33 1012.3 - 0.0 - - - - - - -
25/11:00am 13.3 NW 23 31 1012.8 - 0.0 - - - - - - -
25/10:30am 13.3 NW 23 29 1013.0 - 0.0 - - - - - - -
25/10:17am 13.0 NW 24 35 1013.0 - 0.0 - - - - - - -
25/10:00am 12.7 NW 22 27 1013.5 - 0.0 - - - - - - -
25/09:30am 12.2 NW 19 25 1013.6 - 0.0 - - - - - - -
25/09:00am 12.1 NW 15 20 1013.7 - 10.0 - - - - - - -
25/08:30am 11.0 NW 12 14 1013.9 - 10.0 - - - - - - -
25/08:00am 9.9 NW 12 15 1014.1 - 10.0 - - - - - - -
25/07:30am 9.0 NW 10 12 1014.2 - 10.0 - - - - - - -
25/07:00am 7.5 NW 8 9 1014.2 - 10.0 - - - - - - -
25/06:30am 9.3 WNW 9 11 1014.0 - 10.0 - - - - - - -
25/06:00am 8.4 WNW 8 10 1014.3 - 10.0 - - - - - - -
25/05:30am 8.6 WNW 7 10 1014.2 - 10.0 - - - - - - -
25/05:00am 7.5 WNW 6 8 1014.1 - 10.0 - - - - - - -
25/04:30am 7.6 NW 5 7 1014.3 - 10.0 - - - - - - -
25/04:00am 9.1 WNW 10 14 1014.2 - 10.0 - - - - - - -
25/03:30am 7.9 WNW 8 9 1014.6 - 10.0 - - - - - - -
25/03:00am 8.0 NW 9 11 1014.6 - 10.0 - - - - - - -
25/02:30am 8.4 WNW 10 13 1014.6 - 10.0 - - - - - - -
25/02:00am 8.9 WNW 8 10 1014.6 - 10.0 - - - - - - -
25/01:30am 8.9 WNW 11 16 1014.8 - 8.6 - - - - - - -
25/01:00am 9.6 WNW 9 13 1014.4 - 8.2 - - - - - - -
25/12:30am 10.2 WSW 13 24 1014.2 - 8.2 - - - - - - -
25/12:00am 10.7 WSW 13 18 1014.2 - 7.2 Recent precip. - - - - - -
 
Date/Time
CST
Temp
°C
Wind Pressure Rain since
9am
mm
Weather Cloud Vis
km
Sea
Height
m
Swell
Dir  Spd
kts
Gust
kts
hPa Trend Height
m
Period
s
Dir
24/11:30pm 10.3 WSW 12 20 1013.9 - 7.2 - - - - - - -
24/11:00pm 9.6 WSW 15 24 1013.5 - 7.0 - - - - - - -
24/10:30pm 9.9 W 14 20 1013.0 - 6.4 - - - - - - -
24/10:05pm 10.2 W 15 26 1012.6 - 6.4 - - - - - - -
24/10:00pm 10.3 W 14 20 1012.5 - 6.2 - - - - - - -
24/09:55pm 10.4 WSW 16 25 1012.5 - 6.2 - - - - - - -
24/09:30pm 9.7 W 15 19 1012.2 - 6.0 - - - - - - -
24/09:02pm 9.8 W 17 29 1012.2 - 5.4 - - - - - - -
24/09:00pm 10.1 W 15 24 1012.2 - 5.0 Rain - - - - - -
24/08:30pm 10.3 W 17 22 1011.5 - 4.8 - - - - - - -
24/08:11pm 10.1 W 17 27 1011.3 - 4.8 - - - - - - -
24/08:00pm 10.4 WNW 16 23 1011.1 - 4.8 - - - - - - -
24/07:48pm 10.8 W 19 29 1011.0 - 4.8 - - - - - - -
24/07:30pm 11.1 W 21 29 1010.5 - 4.8 - - - - - - -
24/07:04pm 10.8 W 23 39 1010.1 - 4.4 - - - - - - -
24/07:00pm 10.5 W 24 33 1010.2 - 4.4 - - - - - - -
24/06:30pm 10.7 W 21 28 1009.5 - 4.0 - - - - - - -
24/06:00pm 10.7 WNW 19 30 1009.0 - 3.8 Rain - - - - - -
24/05:32pm 10.5 W 22 33 1008.5 - 3.2 - - - - - - -
24/05:30pm 10.4 W 23 33 1008.6 - 3.2 - - - - - - -
24/05:00pm 11.0 W 23 33 1007.8 - 3.0 - - - - - - -
24/04:30pm 11.9 WNW 25 37 1007.2 - 2.6 - - - - - - -
24/04:01pm 11.8 WNW 25 36 1006.6 - 2.6 - - - - - - -
24/04:00pm 11.9 WNW 24 34 1006.8 - 2.6 - - - - - - -
24/03:30pm 12.5 WNW 25 33 1006.5 - 2.6 - - - - - - -
24/03:00pm 10.8 WNW 19 32 1006.6 - 2.6 Rain - - - - - -
24/02:30pm 10.9 W 26 38 1006.7 - 2.2 - - - - - - -
24/02:27pm 10.8 W 27 38 1006.7 - 2.2 - - - - - - -
24/02:24pm 10.8 WNW 28 38 1006.6 - 2.2 - - - - - - -
24/02:00pm 11.3 W 21 32 1006.6 - 2.2 - - - - - - -
24/01:51pm 11.4 WNW 22 32 1006.6 - 1.8 - - - - - - -
24/01:30pm 12.4 WNW 23 31 1006.6 - 1.6 - - - - - - -
24/01:00pm 11.8 W 19 27 1007.0 - 1.6 - - - - - - -
24/12:46pm 10.3 WSW 24 34 1007.1 - 1.6 - - - - - - -
24/12:41pm 10.5 W 25 37 1007.1 - 1.6 - - - - - - -
24/12:36pm 12.7 WNW 23 37 1006.8 - 1.6 - - - - - - -
24/12:30pm 12.3 W 24 32 1007.0 - 1.6 - - - - - - -
24/12:19pm 11.8 W 18 36 1007.1 - 1.6 - - - - - - -
24/12:00pm 11.5 W 18 26 1007.3 - 1.6 Recent precip. - - - - - -
24/11:30am 8.4 WNW 22 37 1007.4 - 1.6 - - - - - - -
24/11:25am 12.0 WNW 16 27 1007.0 - 0.4 - - - - - - -
24/11:00am 10.8 NW 15 20 1007.3 - 0.4 - - - - - - -
24/10:30am 9.7 NW 18 23 1007.2 - 0.4 - - - - - - -
24/10:11am 9.1 NW 20 31 1007.0 - 0.4 - - - - - - -
24/10:00am 9.3 NW 17 22 1007.2 - 0.4 - - - - - - -
24/09:30am 8.4 NW 13 18 1007.1 - 0.4 - - - - - - -
24/09:00am 8.0 WNW 12 17 1007.1 - 7.8 Rain - - - - - -
24/08:30am 7.8 WNW 20 33 1006.9 - 6.4 - - - - - - -
24/08:27am 7.7 NW 21 33 1006.9 - 6.2 - - - - - - -
24/08:24am 10.3 NW 20 32 1007.0 - 5.4 - - - - - - -
24/08:00am 10.1 NNW 19 26 1006.1 - 4.6 - - - - - - -
24/07:30am 10.0 NNW 21 27 1006.1 - 4.4 - - - - - - -

Other Formats:

Comma delimited format used in spreadsheet applications
http://www.bom.gov.au/fwo/IDS60701/IDS60701.94809.axf

JavaScript Object Notation format (JSON) in row-major order
http://www.bom.gov.au/fwo/IDS60701/IDS60701.94809.json